Terminal Aerodrome Forecast
Issued by NWS Huntsville, AL

Home | Current Version | Previous Version | Text Only | Print | Product List | Glossary On
Versions: 1 2 3 4 5 6 7 8 9 10 11 12 13 14 15 16 17 18
000
FTUS44 KHUN 240300 AAA
TAFHSV
TAF AMD
KHSV 240300Z 2403/2424 32006KT P6SM SCT004 OVC007
      TEMPO 2404/2407 5SM -DZ BR BKN004
     FM241700 35008KT P6SM OVC012=

USA.gov is the U.S. government's official web portal to all federal, state and local government web resources and services.